sensor_id;sensor_type;location;lat;lon;timestamp;pressure;altitude;pressure_sealevel;temperature;humidity
43683;BME280;29285;52.128;21.060;2023-04-08T00:04:14;100892.89;;;7.54;100.00
43683;BME280;29285;52.128;21.060;2023-04-08T00:09:15;100897.40;;;7.61;100.00
43683;BME280;29285;52.128;21.060;2023-04-08T00:14:17;100899.67;;;7.64;100.00
43683;BME280;29285;52.128;21.060;2023-04-08T00:19:19;100901.76;;;7.66;100.00
43683;BME280;29285;52.128;21.060;2023-04-08T00:24:21;100908.48;;;7.64;100.00
43683;BME280;29285;52.128;21.060;2023-04-08T00:29:23;100907.26;;;7.61;100.00
43683;BME280;29285;52.128;21.060;2023-04-08T00:34:24;100906.89;;;7.58;100.00
43683;BME280;29285;52.128;21.060;2023-04-08T00:39:27;100908.96;;;7.57;100.00
43683;BME280;29285;52.128;21.060;2023-04-08T00:44:29;100910.35;;;7.59;100.00
43683;BME280;29285;52.128;21.060;2023-04-08T00:49:30;100914.16;;;7.61;100.00
43683;BME280;29285;52.128;21.060;2023-04-08T00:54:32;100918.46;;;7.59;100.00
43683;BME280;29285;52.128;21.060;2023-04-08T00:59:34;100920.35;;;7.54;100.00
43683;BME280;29285;52.128;21.060;2023-04-08T01:09:43;100934.30;;;7.48;100.00
43683;BME280;29285;52.128;21.060;2023-04-08T01:14:46;100931.84;;;7.43;100.00
43683;BME280;29285;52.128;21.060;2023-04-08T01:19:48;100924.08;;;7.40;100.00
43683;BME280;29285;52.128;21.060;2023-04-08T01:24:51;100929.23;;;7.39;100.00
43683;BME280;29285;52.128;21.060;2023-04-08T01:29:56;100928.00;;;7.36;100.00
43683;BME280;29285;52.128;21.060;2023-04-08T01:34:58;100921.59;;;7.32;100.00
43683;BME280;29285;52.128;21.060;2023-04-08T01:40:01;100924.30;;;7.26;100.00
43683;BME280;29285;52.128;21.060;2023-04-08T01:45:03;100925.13;;;7.21;100.00
43683;BME280;29285;52.128;21.060;2023-04-08T01:50:06;100931.30;;;7.17;100.00
43683;BME280;29285;52.128;21.060;2023-04-08T01:55:09;100934.36;;;7.10;100.00
43683;BME280;29285;52.128;21.060;2023-04-08T02:00:11;100941.37;;;7.00;100.00
43683;BME280;29285;52.128;21.060;2023-04-08T02:05:13;100945.43;;;6.92;100.00
43683;BME280;29285;52.128;21.060;2023-04-08T02:10:15;100947.61;;;6.85;100.00
43683;BME280;29285;52.128;21.060;2023-04-08T02:15:17;100949.77;;;6.78;100.00
43683;BME280;29285;52.128;21.060;2023-04-08T02:25:22;100960.05;;;6.69;100.00
43683;BME280;29285;52.128;21.060;2023-04-08T02:30:24;100968.10;;;6.62;100.00
43683;BME280;29285;52.128;21.060;2023-04-08T02:35:28;100974.08;;;6.57;100.00
43683;BME280;29285;52.128;21.060;2023-04-08T02:40:30;100973.61;;;6.47;100.00
43683;BME280;29285;52.128;21.060;2023-04-08T02:45:34;100975.59;;;6.38;100.00
43683;BME280;29285;52.128;21.060;2023-04-08T02:50:38;100980.69;;;6.33;100.00
43683;BME280;29285;52.128;21.060;2023-04-08T02:55:40;100990.18;;;6.33;100.00
43683;BME280;29285;52.128;21.060;2023-04-08T03:00:42;100997.41;;;6.32;100.00
43683;BME280;29285;52.128;21.060;2023-04-08T03:05:44;100999.09;;;6.29;100.00
43683;BME280;29285;52.128;21.060;2023-04-08T03:10:45;101009.07;;;6.27;100.00
43683;BME280;29285;52.128;21.060;2023-04-08T03:15:47;101013.84;;;6.23;100.00
43683;BME280;29285;52.128;21.060;2023-04-08T03:20:48;101014.27;;;6.16;100.00
43683;BME280;29285;52.128;21.060;2023-04-08T03:25:50;101019.71;;;6.11;100.00
43683;BME280;29285;52.128;21.060;2023-04-08T03:30:52;101020.73;;;6.09;100.00
43683;BME280;29285;52.128;21.060;2023-04-08T03:35:54;101025.05;;;6.11;100.00
43683;BME280;29285;52.128;21.060;2023-04-08T03:40:55;101027.45;;;6.10;100.00
43683;BME280;29285;52.128;21.060;2023-04-08T03:45:57;101027.36;;;6.04;100.00
43683;BME280;29285;52.128;21.060;2023-04-08T03:50:59;101033.46;;;5.99;100.00
43683;BME280;29285;52.128;21.060;2023-04-08T03:56:01;101031.70;;;5.96;100.00
43683;BME280;29285;52.128;21.060;2023-04-08T04:01:03;101036.13;;;5.92;100.00
43683;BME280;29285;52.128;21.060;2023-04-08T04:06:05;101037.60;;;5.86;100.00
43683;BME280;29285;52.128;21.060;2023-04-08T04:11:07;101045.98;;;5.81;100.00
43683;BME280;29285;52.128;21.060;2023-04-08T04:16:08;101052.67;;;5.81;100.00
43683;BME280;29285;52.128;21.060;2023-04-08T04:21:10;101059.06;;;5.82;100.00
43683;BME280;29285;52.128;21.060;2023-04-08T04:26:12;101063.40;;;5.83;100.00
43683;BME280;29285;52.128;21.060;2023-04-08T04:31:20;101072.55;;;5.85;100.00
43683;BME280;29285;52.128;21.060;2023-04-08T04:36:22;101076.40;;;5.90;100.00
43683;BME280;29285;52.128;21.060;2023-04-08T04:41:24;101081.61;;;5.93;100.00
43683;BME280;29285;52.128;21.060;2023-04-08T04:46:25;101086.21;;;6.01;100.00
43683;BME280;29285;52.128;21.060;2023-04-08T04:51:29;101085.49;;;6.09;100.00
43683;BME280;29285;52.128;21.060;2023-04-08T04:56:31;101085.73;;;6.13;100.00
43683;BME280;29285;52.128;21.060;2023-04-08T05:01:33;101087.02;;;6.19;100.00
43683;BME280;29285;52.128;21.060;2023-04-08T05:06:34;101089.21;;;6.42;100.00
43683;BME280;29285;52.128;21.060;2023-04-08T05:11:36;101097.16;;;6.57;100.00
43683;BME280;29285;52.128;21.060;2023-04-08T05:16:37;101098.46;;;6.64;100.00
43683;BME280;29285;52.128;21.060;2023-04-08T05:21:42;101102.33;;;6.70;100.00
43683;BME280;29285;52.128;21.060;2023-04-08T05:26:43;101104.27;;;6.73;100.00
43683;BME280;29285;52.128;21.060;2023-04-08T05:31:46;101105.45;;;6.71;100.00
43683;BME280;29285;52.128;21.060;2023-04-08T05:36:48;101112.72;;;6.74;100.00
43683;BME280;29285;52.128;21.060;2023-04-08T05:41:53;101117.28;;;6.80;100.00
43683;BME280;29285;52.128;21.060;2023-04-08T05:46:55;101124.52;;;6.95;100.00
43683;BME280;29285;52.128;21.060;2023-04-08T05:51:58;101122.48;;;7.11;100.00
43683;BME280;29285;52.128;21.060;2023-04-08T05:56:59;101124.84;;;7.24;100.00
43683;BME280;29285;52.128;21.060;2023-04-08T06:02:01;101130.84;;;7.37;100.00
43683;BME280;29285;52.128;21.060;2023-04-08T06:07:03;101133.35;;;7.45;100.00
43683;BME280;29285;52.128;21.060;2023-04-08T06:12:06;101134.05;;;7.66;100.00
43683;BME280;29285;52.128;21.060;2023-04-08T06:17:08;101130.98;;;8.94;100.00
43683;BME280;29285;52.128;21.060;2023-04-08T06:22:09;101130.10;;;10.82;100.00
43683;BME280;29285;52.128;21.060;2023-04-08T06:27:11;101135.27;;;11.29;100.00
43683;BME280;29285;52.128;21.060;2023-04-08T06:32:13;101132.73;;;11.89;100.00
43683;BME280;29285;52.128;21.060;2023-04-08T06:37:14;101128.01;;;12.47;100.00
43683;BME280;29285;52.128;21.060;2023-04-08T06:42:16;101134.96;;;13.44;100.00
43683;BME280;29285;52.128;21.060;2023-04-08T06:47:18;101137.61;;;13.53;100.00
43683;BME280;29285;52.128;21.060;2023-04-08T06:52:20;101136.84;;;12.67;100.00
43683;BME280;29285;52.128;21.060;2023-04-08T06:57:22;101144.14;;;11.78;100.00
43683;BME280;29285;52.128;21.060;2023-04-08T07:02:24;101146.98;;;11.16;100.00
43683;BME280;29285;52.128;21.060;2023-04-08T07:07:25;101147.27;;;10.94;100.00
43683;BME280;29285;52.128;21.060;2023-04-08T07:12:27;101148.27;;;11.35;100.00
43683;BME280;29285;52.128;21.060;2023-04-08T07:17:29;101145.23;;;11.19;100.00
43683;BME280;29285;52.128;21.060;2023-04-08T07:22:31;101151.27;;;10.90;100.00
43683;BME280;29285;52.128;21.060;2023-04-08T07:27:33;101153.95;;;10.71;100.00
43683;BME280;29285;52.128;21.060;2023-04-08T07:32:34;101154.18;;;10.53;100.00
43683;BME280;29285;52.128;21.060;2023-04-08T07:37:37;101158.20;;;10.44;100.00
43683;BME280;29285;52.128;21.060;2023-04-08T07:42:38;101158.89;;;10.37;100.00
43683;BME280;29285;52.128;21.060;2023-04-08T07:47:40;101160.95;;;10.36;100.00
43683;BME280;29285;52.128;21.060;2023-04-08T07:52:45;101163.22;;;10.31;100.00
43683;BME280;29285;52.128;21.060;2023-04-08T07:57:46;101165.84;;;10.25;100.00
43683;BME280;29285;52.128;21.060;2023-04-08T08:02:48;101168.27;;;10.20;100.00
43683;BME280;29285;52.128;21.060;2023-04-08T08:07:50;101169.64;;;10.26;100.00
43683;BME280;29285;52.128;21.060;2023-04-08T08:12:52;101161.84;;;10.33;100.00
43683;BME280;29285;52.128;21.060;2023-04-08T08:17:53;101162.86;;;10.40;100.00
43683;BME280;29285;52.128;21.060;2023-04-08T08:22:55;101164.27;;;10.49;100.00
43683;BME280;29285;52.128;21.060;2023-04-08T08:27:57;101160.60;;;10.56;100.00
43683;BME280;29285;52.128;21.060;2023-04-08T08:32:59;101160.58;;;10.62;100.00
43683;BME280;29285;52.128;21.060;2023-04-08T08:38:01;101159.16;;;10.73;100.00
43683;BME280;29285;52.128;21.060;2023-04-08T08:43:03;101158.80;;;10.77;100.00
43683;BME280;29285;52.128;21.060;2023-04-08T08:48:06;101156.51;;;10.86;100.00
43683;BME280;29285;52.128;21.060;2023-04-08T08:53:09;101156.64;;;10.95;100.00
43683;BME280;29285;52.128;21.060;2023-04-08T08:58:10;101157.47;;;11.03;100.00
43683;BME280;29285;52.128;21.060;2023-04-08T09:03:16;101157.27;;;11.09;100.00
43683;BME280;29285;52.128;21.060;2023-04-08T09:08:25;101159.65;;;11.19;100.00
43683;BME280;29285;52.128;21.060;2023-04-08T09:13:33;101161.18;;;11.25;100.00
43683;BME280;29285;52.128;21.060;2023-04-08T09:18:36;101162.35;;;11.32;100.00
43683;BME280;29285;52.128;21.060;2023-04-08T09:28:58;101169.69;;;11.55;100.00
43683;BME280;29285;52.128;21.060;2023-04-08T09:34:07;101168.61;;;11.58;100.00
43683;BME280;29285;52.128;21.060;2023-04-08T09:39:10;101169.27;;;11.65;100.00
43683;BME280;29285;52.128;21.060;2023-04-08T09:44:11;101168.66;;;11.76;100.00
43683;BME280;29285;52.128;21.060;2023-04-08T09:49:17;101163.94;;;11.79;100.00
43683;BME280;29285;52.128;21.060;2023-04-08T09:54:21;101158.02;;;11.80;100.00
43683;BME280;29285;52.128;21.060;2023-04-08T09:59:26;101154.29;;;11.90;100.00
43683;BME280;29285;52.128;21.060;2023-04-08T10:04:31;101150.40;;;12.00;100.00
43683;BME280;29285;52.128;21.060;2023-04-08T10:09:36;101149.66;;;12.07;100.00
43683;BME280;29285;52.128;21.060;2023-04-08T10:14:38;101145.02;;;12.19;100.00
43683;BME280;29285;52.128;21.060;2023-04-08T10:19:40;101144.04;;;12.31;100.00
43683;BME280;29285;52.128;21.060;2023-04-08T10:24:57;101139.43;;;12.38;100.00
43683;BME280;29285;52.128;21.060;2023-04-08T10:30:06;101138.92;;;12.52;100.00
43683;BME280;29285;52.128;21.060;2023-04-08T10:35:29;101130.11;;;12.62;100.00
43683;BME280;29285;52.128;21.060;2023-04-08T10:40:34;101131.96;;;12.68;100.00
43683;BME280;29285;52.128;21.060;2023-04-08T10:45:40;101124.39;;;12.89;100.00
43683;BME280;29285;52.128;21.060;2023-04-08T10:50:43;101123.76;;;13.11;100.00
43683;BME280;29285;52.128;21.060;2023-04-08T10:55:44;101116.73;;;13.26;100.00
43683;BME280;29285;52.128;21.060;2023-04-08T11:00:47;101114.11;;;13.51;100.00
43683;BME280;29285;52.128;21.060;2023-04-08T11:05:48;101111.67;;;13.84;100.00
43683;BME280;29285;52.128;21.060;2023-04-08T11:10:50;101108.30;;;14.16;100.00
43683;BME280;29285;52.128;21.060;2023-04-08T11:15:52;101107.70;;;14.57;100.00
43683;BME280;29285;52.128;21.060;2023-04-08T11:20:54;101109.12;;;14.82;100.00
43683;BME280;29285;52.128;21.060;2023-04-08T11:25:55;101112.00;;;15.03;100.00
43683;BME280;29285;52.128;21.060;2023-04-08T11:30:57;101107.48;;;15.32;100.00
43683;BME280;29285;52.128;21.060;2023-04-08T11:36:00;101104.42;;;15.43;100.00
43683;BME280;29285;52.128;21.060;2023-04-08T11:41:02;101103.20;;;15.50;100.00
43683;BME280;29285;52.128;21.060;2023-04-08T11:46:10;101098.35;;;15.77;100.00
43683;BME280;29285;52.128;21.060;2023-04-08T11:51:13;101095.52;;;16.13;100.00
43683;BME280;29285;52.128;21.060;2023-04-08T11:56:18;101085.88;;;16.39;100.00
43683;BME280;29285;52.128;21.060;2023-04-08T12:01:20;101085.62;;;16.55;100.00
43683;BME280;29285;52.128;21.060;2023-04-08T12:06:22;101084.27;;;16.47;99.22
43683;BME280;29285;52.128;21.060;2023-04-08T12:11:24;101084.88;;;16.56;98.17
43683;BME280;29285;52.128;21.060;2023-04-08T12:16:26;101069.75;;;16.76;97.58
43683;BME280;29285;52.128;21.060;2023-04-08T12:21:28;101067.19;;;17.03;96.92
43683;BME280;29285;52.128;21.060;2023-04-08T12:26:29;101063.23;;;17.24;95.94
43683;BME280;29285;52.128;21.060;2023-04-08T12:31:31;101055.20;;;17.28;94.44
43683;BME280;29285;52.128;21.060;2023-04-08T12:36:33;101054.11;;;17.45;93.52
